sensor_id;sensor_type;location;lat;lon;timestamp;temperature;humidity
74178;DHT22;62540;48.456;-4.456;2023-04-30T00:02:10;17.00;70.15
74178;DHT22;62540;48.456;-4.456;2023-04-30T00:04:35;17.02;70.01
74178;DHT22;62540;48.456;-4.456;2023-04-30T00:07:01;16.96;70.06
74178;DHT22;62540;48.456;-4.456;2023-04-30T00:09:26;16.93;70.10
74178;DHT22;62540;48.456;-4.456;2023-04-30T00:11:52;16.94;70.06
74178;DHT22;62540;48.456;-4.456;2023-04-30T00:14:17;16.96;70.03
74178;DHT22;62540;48.456;-4.456;2023-04-30T00:16:43;16.96;69.95
74178;DHT22;62540;48.456;-4.456;2023-04-30T00:19:08;16.89;69.96
74178;DHT22;62540;48.456;-4.456;2023-04-30T00:21:34;16.83;69.99
74178;DHT22;62540;48.456;-4.456;2023-04-30T00:23:59;16.84;69.85
74178;DHT22;62540;48.456;-4.456;2023-04-30T00:26:25;16.80;69.86
74178;DHT22;62540;48.456;-4.456;2023-04-30T00:28:51;16.80;69.95
74178;DHT22;62540;48.456;-4.456;2023-04-30T00:31:16;16.82;69.85
74178;DHT22;62540;48.456;-4.456;2023-04-30T00:33:41;16.82;69.71
74178;DHT22;62540;48.456;-4.456;2023-04-30T00:36:07;16.79;69.68
74178;DHT22;62540;48.456;-4.456;2023-04-30T00:38:32;16.80;69.71
74178;DHT22;62540;48.456;-4.456;2023-04-30T00:40:58;16.77;69.76
74178;DHT22;62540;48.456;-4.456;2023-04-30T00:43:23;16.79;70.19
74178;DHT22;62540;48.456;-4.456;2023-04-30T00:45:48;16.75;69.96
74178;DHT22;62540;48.456;-4.456;2023-04-30T00:48:15;16.77;70.15
74178;DHT22;62540;48.456;-4.456;2023-04-30T00:50:40;16.76;70.20
74178;DHT22;62540;48.456;-4.456;2023-04-30T00:53:08;16.79;70.15
74178;DHT22;62540;48.456;-4.456;2023-04-30T00:55:33;16.77;70.06
74178;DHT22;62540;48.456;-4.456;2023-04-30T00:57:59;16.77;70.15
74178;DHT22;62540;48.456;-4.456;2023-04-30T01:00:26;16.77;70.08
74178;DHT22;62540;48.456;-4.456;2023-04-30T01:02:51;16.79;70.10
74178;DHT22;62540;48.456;-4.456;2023-04-30T01:05:17;16.77;70.12
74178;DHT22;62540;48.456;-4.456;2023-04-30T01:07:43;16.77;70.23
74178;DHT22;62540;48.456;-4.456;2023-04-30T01:10:14;16.73;70.33
74178;DHT22;62540;48.456;-4.456;2023-04-30T01:13:00;16.77;70.39
74178;DHT22;62540;48.456;-4.456;2023-04-30T01:15:35;16.79;70.46
74178;DHT22;62540;48.456;-4.456;2023-04-30T01:18:13;16.80;70.43
74178;DHT22;62540;48.456;-4.456;2023-04-30T01:20:54;16.77;70.60
74178;DHT22;62540;48.456;-4.456;2023-04-30T01:26:10;16.76;70.73
74178;DHT22;62540;48.456;-4.456;2023-04-30T01:28:35;16.77;70.79
74178;DHT22;62540;48.456;-4.456;2023-04-30T01:31:02;16.76;70.90
74178;DHT22;62540;48.456;-4.456;2023-04-30T01:33:27;16.75;71.02
74178;DHT22;62540;48.456;-4.456;2023-04-30T01:36:17;16.75;71.11
74178;DHT22;62540;48.456;-4.456;2023-04-30T01:46:34;16.76;71.29
74178;DHT22;62540;48.456;-4.456;2023-04-30T01:51:40;16.72;71.67
74178;DHT22;62540;48.456;-4.456;2023-04-30T01:54:23;16.75;71.67
74178;DHT22;62540;48.456;-4.456;2023-04-30T01:59:25;16.69;71.84
74178;DHT22;62540;48.456;-4.456;2023-04-30T02:01:51;16.70;71.86
74178;DHT22;62540;48.456;-4.456;2023-04-30T02:04:16;16.73;71.82
74178;DHT22;62540;48.456;-4.456;2023-04-30T02:06:42;16.70;71.77
74178;DHT22;62540;48.456;-4.456;2023-04-30T02:09:07;16.69;71.76
74178;DHT22;62540;48.456;-4.456;2023-04-30T02:11:34;16.69;71.81
74178;DHT22;62540;48.456;-4.456;2023-04-30T02:14:00;16.66;71.94
74178;DHT22;62540;48.456;-4.456;2023-04-30T02:16:25;16.65;71.91
74178;DHT22;62540;48.456;-4.456;2023-04-30T02:18:50;16.65;72.11
74178;DHT22;62540;48.456;-4.456;2023-04-30T02:21:16;16.66;72.13
74178;DHT22;62540;48.456;-4.456;2023-04-30T02:23:42;16.66;71.97
74178;DHT22;62540;48.456;-4.456;2023-04-30T02:26:07;16.69;71.84
74178;DHT22;62540;48.456;-4.456;2023-04-30T02:28:33;16.72;71.84
74178;DHT22;62540;48.456;-4.456;2023-04-30T02:31:01;16.70;71.92
74178;DHT22;62540;48.456;-4.456;2023-04-30T02:33:27;16.70;71.91
74178;DHT22;62540;48.456;-4.456;2023-04-30T02:35:52;16.69;71.96
74178;DHT22;62540;48.456;-4.456;2023-04-30T02:38:19;16.66;72.00
74178;DHT22;62540;48.456;-4.456;2023-04-30T02:40:44;16.66;72.12
74178;DHT22;62540;48.456;-4.456;2023-04-30T02:43:10;16.66;72.00
74178;DHT22;62540;48.456;-4.456;2023-04-30T02:45:35;16.70;71.83
74178;DHT22;62540;48.456;-4.456;2023-04-30T02:48:01;16.69;71.83
74178;DHT22;62540;48.456;-4.456;2023-04-30T02:50:26;16.72;71.87
74178;DHT22;62540;48.456;-4.456;2023-04-30T02:52:51;16.75;71.88
74178;DHT22;62540;48.456;-4.456;2023-04-30T02:55:17;16.70;72.04
74178;DHT22;62540;48.456;-4.456;2023-04-30T02:57:42;16.66;72.14
74178;DHT22;62540;48.456;-4.456;2023-04-30T03:00:08;16.69;72.22
74178;DHT22;62540;48.456;-4.456;2023-04-30T03:02:34;16.69;72.12
74178;DHT22;62540;48.456;-4.456;2023-04-30T03:04:59;16.66;72.23
74178;DHT22;62540;48.456;-4.456;2023-04-30T03:07:24;16.68;72.33
74178;DHT22;62540;48.456;-4.456;2023-04-30T03:09:50;16.68;72.46
74178;DHT22;62540;48.456;-4.456;2023-04-30T03:12:16;16.66;72.51
74178;DHT22;62540;48.456;-4.456;2023-04-30T03:14:41;16.65;72.54
74178;DHT22;62540;48.456;-4.456;2023-04-30T03:17:06;16.69;72.55
74178;DHT22;62540;48.456;-4.456;2023-04-30T03:19:32;16.70;72.56
74178;DHT22;62540;48.456;-4.456;2023-04-30T03:21:58;16.70;72.56
74178;DHT22;62540;48.456;-4.456;2023-04-30T03:24:23;16.66;72.57
74178;DHT22;62540;48.456;-4.456;2023-04-30T03:26:49;16.66;72.51
74178;DHT22;62540;48.456;-4.456;2023-04-30T03:29:15;16.68;72.62
74178;DHT22;62540;48.456;-4.456;2023-04-30T03:31:40;16.68;72.67
74178;DHT22;62540;48.456;-4.456;2023-04-30T03:34:06;16.63;72.75
74178;DHT22;62540;48.456;-4.456;2023-04-30T03:36:31;16.65;72.74
74178;DHT22;62540;48.456;-4.456;2023-04-30T03:38:57;16.65;72.77
74178;DHT22;62540;48.456;-4.456;2023-04-30T03:41:23;16.66;72.76
74178;DHT22;62540;48.456;-4.456;2023-04-30T03:43:48;16.62;72.61
74178;DHT22;62540;48.456;-4.456;2023-04-30T03:46:14;16.59;72.81
74178;DHT22;62540;48.456;-4.456;2023-04-30T03:48:39;16.53;72.80
74178;DHT22;62540;48.456;-4.456;2023-04-30T03:51:05;16.51;72.76
74178;DHT22;62540;48.456;-4.456;2023-04-30T03:53:30;16.49;72.93
74178;DHT22;62540;48.456;-4.456;2023-04-30T03:55:56;16.41;73.19
74178;DHT22;62540;48.456;-4.456;2023-04-30T03:58:22;16.41;73.17
74178;DHT22;62540;48.456;-4.456;2023-04-30T04:00:48;16.32;73.39
74178;DHT22;62540;48.456;-4.456;2023-04-30T04:03:14;16.32;73.44
74178;DHT22;62540;48.456;-4.456;2023-04-30T04:05:39;16.31;73.84
74178;DHT22;62540;48.456;-4.456;2023-04-30T04:08:05;16.25;73.63
74178;DHT22;62540;48.456;-4.456;2023-04-30T04:10:32;16.26;73.52
74178;DHT22;62540;48.456;-4.456;2023-04-30T04:12:58;16.32;73.39
74178;DHT22;62540;48.456;-4.456;2023-04-30T04:15:23;16.33;73.28
74178;DHT22;62540;48.456;-4.456;2023-04-30T04:17:48;16.35;73.23
74178;DHT22;62540;48.456;-4.456;2023-04-30T04:20:14;16.36;73.23
74178;DHT22;62540;48.456;-4.456;2023-04-30T04:22:39;16.35;73.28
74178;DHT22;62540;48.456;-4.456;2023-04-30T04:25:05;16.40;73.24
74178;DHT22;62540;48.456;-4.456;2023-04-30T04:27:31;16.45;73.25
74178;DHT22;62540;48.456;-4.456;2023-04-30T04:29:56;16.45;73.28
74178;DHT22;62540;48.456;-4.456;2023-04-30T04:32:22;16.48;73.17
74178;DHT22;62540;48.456;-4.456;2023-04-30T04:34:47;16.48;73.20
74178;DHT22;62540;48.456;-4.456;2023-04-30T04:37:13;16.44;73.24
74178;DHT22;62540;48.456;-4.456;2023-04-30T04:39:39;16.48;73.23
74178;DHT22;62540;48.456;-4.456;2023-04-30T04:42:05;16.49;73.09
74178;DHT22;62540;48.456;-4.456;2023-04-30T04:44:30;16.52;73.06
74178;DHT22;62540;48.456;-4.456;2023-04-30T04:46:56;16.53;72.97
74178;DHT22;62540;48.456;-4.456;2023-04-30T04:49:22;16.53;72.93
74178;DHT22;62540;48.456;-4.456;2023-04-30T04:51:48;16.55;72.88
74178;DHT22;62540;48.456;-4.456;2023-04-30T04:54:13;16.52;72.92
74178;DHT22;62540;48.456;-4.456;2023-04-30T04:56:39;16.55;73.05
74178;DHT22;62540;48.456;-4.456;2023-04-30T04:59:04;16.53;73.17
74178;DHT22;62540;48.456;-4.456;2023-04-30T05:01:29;16.53;73.07
74178;DHT22;62540;48.456;-4.456;2023-04-30T05:03:55;16.49;73.04
74178;DHT22;62540;48.456;-4.456;2023-04-30T05:06:20;16.48;73.20
74178;DHT22;62540;48.456;-4.456;2023-04-30T05:08:46;16.47;73.21
74178;DHT22;62540;48.456;-4.456;2023-04-30T05:11:11;16.47;73.31
74178;DHT22;62540;48.456;-4.456;2023-04-30T05:13:37;16.40;73.57
74178;DHT22;62540;48.456;-4.456;2023-04-30T05:16:02;16.36;73.47
74178;DHT22;62540;48.456;-4.456;2023-04-30T05:18:28;16.38;73.41
74178;DHT22;62540;48.456;-4.456;2023-04-30T05:20:53;16.40;73.13
74178;DHT22;62540;48.456;-4.456;2023-04-30T05:23:18;16.40;73.12
74178;DHT22;62540;48.456;-4.456;2023-04-30T05:25:44;16.41;73.16
74178;DHT22;62540;48.456;-4.456;2023-04-30T05:28:11;16.38;73.33
74178;DHT22;62540;48.456;-4.456;2023-04-30T05:30:36;16.36;73.28
74178;DHT22;62540;48.456;-4.456;2023-04-30T05:33:02;16.36;73.45
74178;DHT22;62540;48.456;-4.456;2023-04-30T05:35:27;16.36;73.42
74178;DHT22;62540;48.456;-4.456;2023-04-30T05:37:54;16.38;73.43
74178;DHT22;62540;48.456;-4.456;2023-04-30T05:40:19;16.33;73.55
74178;DHT22;62540;48.456;-4.456;2023-04-30T05:42:45;16.32;73.57
74178;DHT22;62540;48.456;-4.456;2023-04-30T05:45:12;16.32;73.54
74178;DHT22;62540;48.456;-4.456;2023-04-30T05:47:39;16.32;73.73
74178;DHT22;62540;48.456;-4.456;2023-04-30T05:50:05;16.32;73.66
74178;DHT22;62540;48.456;-4.456;2023-04-30T05:52:31;16.29;73.81
74178;DHT22;62540;48.456;-4.456;2023-04-30T05:54:57;16.25;73.63
74178;DHT22;62540;48.456;-4.456;2023-04-30T05:57:22;16.24;73.56
74178;DHT22;62540;48.456;-4.456;2023-04-30T05:59:48;16.22;73.61
74178;DHT22;62540;48.456;-4.456;2023-04-30T06:02:13;16.17;73.53
74178;DHT22;62540;48.456;-4.456;2023-04-30T06:04:39;16.21;73.66
74178;DHT22;62540;48.456;-4.456;2023-04-30T06:07:04;16.15;73.65
74178;DHT22;62540;48.456;-4.456;2023-04-30T06:09:30;16.18;73.69
74178;DHT22;62540;48.456;-4.456;2023-04-30T06:11:55;16.20;73.68
74178;DHT22;62540;48.456;-4.456;2023-04-30T06:14:21;16.22;73.60
74178;DHT22;62540;48.456;-4.456;2023-04-30T06:16:47;16.28;73.48
74178;DHT22;62540;48.456;-4.456;2023-04-30T06:19:13;16.31;73.35
74178;DHT22;62540;48.456;-4.456;2023-04-30T06:21:38;16.28;73.28
74178;DHT22;62540;48.456;-4.456;2023-04-30T06:24:04;16.29;73.23
74178;DHT22;62540;48.456;-4.456;2023-04-30T06:26:31;16.25;73.35
74178;DHT22;62540;48.456;-4.456;2023-04-30T06:28:56;16.24;73.29
74178;DHT22;62540;48.456;-4.456;2023-04-30T06:31:22;16.26;73.32
74178;DHT22;62540;48.456;-4.456;2023-04-30T06:33:47;16.31;73.17
74178;DHT22;62540;48.456;-4.456;2023-04-30T06:36:12;16.28;73.22
74178;DHT22;62540;48.456;-4.456;2023-04-30T06:38:39;16.22;73.45
74178;DHT22;62540;48.456;-4.456;2023-04-30T06:41:05;16.20;73.49
74178;DHT22;62540;48.456;-4.456;2023-04-30T06:43:30;16.22;73.19
74178;DHT22;62540;48.456;-4.456;2023-04-30T06:45:55;16.22;73.34
74178;DHT22;62540;48.456;-4.456;2023-04-30T06:48:21;16.24;73.25
74178;DHT22;62540;48.456;-4.456;2023-04-30T06:50:49;16.15;73.28
74178;DHT22;62540;48.456;-4.456;2023-04-30T06:53:14;16.12;73.25
74178;DHT22;62540;48.456;-4.456;2023-04-30T06:55:40;16.14;73.37
74178;DHT22;62540;48.456;-4.456;2023-04-30T06:58:06;16.15;73.42
74178;DHT22;62540;48.456;-4.456;2023-04-30T07:00:32;16.20;73.47
74178;DHT22;62540;48.456;-4.456;2023-04-30T07:02:58;16.25;73.53
74178;DHT22;62540;48.456;-4.456;2023-04-30T07:05:28;16.29;73.44
74178;DHT22;62540;48.456;-4.456;2023-04-30T07:07:55;16.40;73.35
74178;DHT22;62540;48.456;-4.456;2023-04-30T07:10:20;16.44;73.30
74178;DHT22;62540;48.456;-4.456;2023-04-30T07:12:46;16.42;73.24
74178;DHT22;62540;48.456;-4.456;2023-04-30T07:15:11;16.48;73.13
74178;DHT22;62540;48.456;-4.456;2023-04-30T07:17:37;16.52;73.02
74178;DHT22;62540;48.456;-4.456;2023-04-30T07:20:06;16.59;73.07
74178;DHT22;62540;48.456;-4.456;2023-04-30T07:22:32;16.66;72.75
74178;DHT22;62540;48.456;-4.456;2023-04-30T07:24:57;16.69;72.85
74178;DHT22;62540;48.456;-4.456;2023-04-30T07:27:22;16.72;73.10
74178;DHT22;62540;48.456;-4.456;2023-04-30T07:29:48;16.77;73.23
74178;DHT22;62540;48.456;-4.456;2023-04-30T07:32:13;16.84;73.02
74178;DHT22;62540;48.456;-4.456;2023-04-30T07:34:40;16.91;72.81
74178;DHT22;62540;48.456;-4.456;2023-04-30T07:37:07;16.93;72.58
74178;DHT22;62540;48.456;-4.456;2023-04-30T07:39:33;16.90;72.79
74178;DHT22;62540;48.456;-4.456;2023-04-30T07:41:58;16.94;72.74
74178;DHT22;62540;48.456;-4.456;2023-04-30T07:44:24;17.03;72.45
74178;DHT22;62540;48.456;-4.456;2023-04-30T07:46:49;17.09;72.24
74178;DHT22;62540;48.456;-4.456;2023-04-30T07:49:14;17.19;71.76
74178;DHT22;62540;48.456;-4.456;2023-04-30T07:51:40;17.23;71.99
74178;DHT22;62540;48.456;-4.456;2023-04-30T07:54:06;17.28;72.28
74178;DHT22;62540;48.456;-4.456;2023-04-30T07:56:32;17.35;72.15
74178;DHT22;62540;48.456;-4.456;2023-04-30T07:58:57;17.41;71.72
74178;DHT22;62540;48.456;-4.456;2023-04-30T08:01:22;17.42;71.54
74178;DHT22;62540;48.456;-4.456;2023-04-30T08:03:48;17.42;71.64
74178;DHT22;62540;48.456;-4.456;2023-04-30T08:06:13;17.48;71.39
74178;DHT22;62540;48.456;-4.456;2023-04-30T08:08:39;17.48;71.41
74178;DHT22;62540;48.456;-4.456;2023-04-30T08:11:04;17.57;71.54
74178;DHT22;62540;48.456;-4.456;2023-04-30T08:13:30;17.64;71.12
74178;DHT22;62540;48.456;-4.456;2023-04-30T08:15:55;17.71;71.00
74178;DHT22;62540;48.456;-4.456;2023-04-30T08:18:20;17.78;71.08
74178;DHT22;62540;48.456;-4.456;2023-04-30T08:20:46;17.88;70.40
74178;DHT22;62540;48.456;-4.456;2023-04-30T08:23:11;17.92;70.02
74178;DHT22;62540;48.456;-4.456;2023-04-30T08:25:37;17.95;69.68
74178;DHT22;62540;48.456;-4.456;2023-04-30T08:28:02;17.89;69.62
74178;DHT22;62540;48.456;-4.456;2023-04-30T08:30:27;17.85;70.23
74178;DHT22;62540;48.456;-4.456;2023-04-30T08:32:53;17.83;70.24
74178;DHT22;62540;48.456;-4.456;2023-04-30T08:35:19;17.83;70.26
74178;DHT22;62540;48.456;-4.456;2023-04-30T08:37:45;17.90;69.92
74178;DHT22;62540;48.456;-4.456;2023-04-30T08:40:10;17.96;69.86
74178;DHT22;62540;48.456;-4.456;2023-04-30T08:42:37;17.95;69.88
74178;DHT22;62540;48.456;-4.456;2023-04-30T08:45:04;18.03;69.62
74178;DHT22;62540;48.456;-4.456;2023-04-30T08:47:30;18.09;69.71
74178;DHT22;62540;48.456;-4.456;2023-04-30T08:49:56;18.16;69.39
74178;DHT22;62540;48.456;-4.456;2023-04-30T08:52:21;18.19;69.02
74178;DHT22;62540;48.456;-4.456;2023-04-30T08:54:47;18.17;68.68
74178;DHT22;62540;48.456;-4.456;2023-04-30T08:57:14;18.20;69.19
74178;DHT22;62540;48.456;-4.456;2023-04-30T08:59:39;18.16;69.38
74178;DHT22;62540;48.456;-4.456;2023-04-30T09:02:07;18.10;69.23
74178;DHT22;62540;48.456;-4.456;2023-04-30T09:04:34;18.14;69.05
74178;DHT22;62540;48.456;-4.456;2023-04-30T09:06:59;18.13;69.23
74178;DHT22;62540;48.456;-4.456;2023-04-30T09:09:29;18.16;69.09
74178;DHT22;62540;48.456;-4.456;2023-04-30T09:12:13;18.25;68.76
74178;DHT22;62540;48.456;-4.456;2023-04-30T09:14:40;18.25;69.22
74178;DHT22;62540;48.456;-4.456;2023-04-30T09:17:06;18.33;69.22
74178;DHT22;62540;48.456;-4.456;2023-04-30T09:19:33;18.38;69.24
74178;DHT22;62540;48.456;-4.456;2023-04-30T09:22:17;18.43;68.83
74178;DHT22;62540;48.456;-4.456;2023-04-30T09:24:47;18.43;68.40
74178;DHT22;62540;48.456;-4.456;2023-04-30T09:27:23;18.41;68.75
74178;DHT22;62540;48.456;-4.456;2023-04-30T09:29:48;18.44;68.60
74178;DHT22;62540;48.456;-4.456;2023-04-30T09:32:14;18.36;68.71
74178;DHT22;62540;48.456;-4.456;2023-04-30T09:34:40;18.34;68.11
74178;DHT22;62540;48.456;-4.456;2023-04-30T09:37:06;18.22;69.05
74178;DHT22;62540;48.456;-4.456;2023-04-30T09:39:32;18.19;68.95
74178;DHT22;62540;48.456;-4.456;2023-04-30T09:42:10;18.27;69.24
74178;DHT22;62540;48.456;-4.456;2023-04-30T09:44:37;18.41;68.98
74178;DHT22;62540;48.456;-4.456;2023-04-30T09:47:03;18.50;68.26
74178;DHT22;62540;48.456;-4.456;2023-04-30T09:49:29;18.53;68.13
74178;DHT22;62540;48.456;-4.456;2023-04-30T09:51:58;18.61;68.30
74178;DHT22;62540;48.456;-4.456;2023-04-30T09:54:27;18.74;67.66
74178;DHT22;62540;48.456;-4.456;2023-04-30T09:56:53;18.72;67.44
74178;DHT22;62540;48.456;-4.456;2023-04-30T09:59:21;18.77;67.72
74178;DHT22;62540;48.456;-4.456;2023-04-30T10:01:51;18.83;67.54
74178;DHT22;62540;48.456;-4.456;2023-04-30T10:04:18;18.87;67.66
74178;DHT22;62540;48.456;-4.456;2023-04-30T10:06:44;19.01;67.30
74178;DHT22;62540;48.456;-4.456;2023-04-30T10:09:12;19.14;66.97
74178;DHT22;62540;48.456;-4.456;2023-04-30T10:11:42;19.25;66.86
74178;DHT22;62540;48.456;-4.456;2023-04-30T10:14:12;19.37;66.68
74178;DHT22;62540;48.456;-4.456;2023-04-30T10:17:10;19.49;66.64
74178;DHT22;62540;48.456;-4.456;2023-04-30T10:19:38;19.69;66.03
74178;DHT22;62540;48.456;-4.456;2023-04-30T10:22:08;19.74;65.71
74178;DHT22;62540;48.456;-4.456;2023-04-30T10:24:35;19.95;66.13
74178;DHT22;62540;48.456;-4.456;2023-04-30T10:27:01;20.21;65.99
74178;DHT22;62540;48.456;-4.456;2023-04-30T10:29:27;20.39;65.49
74178;DHT22;62540;48.456;-4.456;2023-04-30T10:31:53;20.55;65.26
74178;DHT22;62540;48.456;-4.456;2023-04-30T10:37:17;20.81;63.36
74178;DHT22;62540;48.456;-4.456;2023-04-30T10:39:45;20.83;63.54
74178;DHT22;62540;48.456;-4.456;2023-04-30T10:42:11;20.86;63.27
74178;DHT22;62540;48.456;-4.456;2023-04-30T10:44:37;21.04;62.80
74178;DHT22;62540;48.456;-4.456;2023-04-30T10:47:04;21.24;63.46
74178;DHT22;62540;48.456;-4.456;2023-04-30T10:49:30;21.28;62.06
74178;DHT22;62540;48.456;-4.456;2023-04-30T10:51:59;21.30;63.31
74178;DHT22;62540;48.456;-4.456;2023-04-30T10:54:32;21.34;63.53
74178;DHT22;62540;48.456;-4.456;2023-04-30T10:57:09;21.48;62.72
74178;DHT22;62540;48.456;-4.456;2023-04-30T10:59:41;21.65;62.71
74178;DHT22;62540;48.456;-4.456;2023-04-30T11:02:09;21.72;61.69
74178;DHT22;62540;48.456;-4.456;2023-04-30T11:05:11;21.71;61.67
74178;DHT22;62540;48.456;-4.456;2023-04-30T11:07:55;21.63;60.53
74178;DHT22;62540;48.456;-4.456;2023-04-30T11:10:22;21.68;61.06
74178;DHT22;62540;48.456;-4.456;2023-04-30T11:12:51;21.78;61.12
74178;DHT22;62540;48.456;-4.456;2023-04-30T11:15:19;21.97;60.60
74178;DHT22;62540;48.456;-4.456;2023-04-30T11:17:47;22.14;60.34
74178;DHT22;62540;48.456;-4.456;2023-04-30T11:20:24;22.32;60.00
74178;DHT22;62540;48.456;-4.456;2023-04-30T11:23:13;22.41;60.17
74178;DHT22;62540;48.456;-4.456;2023-04-30T11:25:46;22.65;60.27
74178;DHT22;62540;48.456;-4.456;2023-04-30T11:28:25;22.82;59.71
74178;DHT22;62540;48.456;-4.456;2023-04-30T11:30:55;23.02;58.52
74178;DHT22;62540;48.456;-4.456;2023-04-30T11:33:24;23.24;56.64
74178;DHT22;62540;48.456;-4.456;2023-04-30T11:35:51;23.46;58.38
74178;DHT22;62540;48.456;-4.456;2023-04-30T11:38:24;23.69;58.27
74178;DHT22;62540;48.456;-4.456;2023-04-30T11:40:50;23.91;57.32
74178;DHT22;62540;48.456;-4.456;2023-04-30T11:43:27;23.93;55.61
74178;DHT22;62540;48.456;-4.456;2023-04-30T11:48:33;23.78;56.31
74178;DHT22;62540;48.456;-4.456;2023-04-30T11:51:22;23.84;56.75
74178;DHT22;62540;48.456;-4.456;2023-04-30T11:53:50;24.05;56.50
74178;DHT22;62540;48.456;-4.456;2023-04-30T11:58:46;24.38;54.64
74178;DHT22;62540;48.456;-4.456;2023-04-30T12:01:12;24.51;55.16
74178;DHT22;62540;48.456;-4.456;2023-04-30T12:03:42;24.62;55.59
74178;DHT22;62540;48.456;-4.456;2023-04-30T12:06:15;24.60;52.98
74178;DHT22;62540;48.456;-4.456;2023-04-30T12:08:45;24.55;55.31
74178;DHT22;62540;48.456;-4.456;2023-04-30T12:11:25;24.42;54.53
74178;DHT22;62540;48.456;-4.456;2023-04-30T12:13:55;24.45;54.94
74178;DHT22;62540;48.456;-4.456;2023-04-30T12:16:21;24.35;54.53
74178;DHT22;62540;48.456;-4.456;2023-04-30T12:18:47;24.19;55.13
74178;DHT22;62540;48.456;-4.456;2023-04-30T12:21:14;24.15;54.92
74178;DHT22;62540;48.456;-4.456;2023-04-30T12:23:39;24.19;55.55
74178;DHT22;62540;48.456;-4.456;2023-04-30T12:26:05;24.15;54.51
74178;DHT22;62540;48.456;-4.456;2023-04-30T12:28:30;24.11;55.20
74178;DHT22;62540;48.456;-4.456;2023-04-30T12:30:58;24.04;53.90
74178;DHT22;62540;48.456;-4.456;2023-04-30T12:33:23;23.87;54.97
74178;DHT22;62540;48.456;-4.456;2023-04-30T12:35:51;23.80;54.51
74178;DHT22;62540;48.456;-4.456;2023-04-30T12:38:17;23.75;55.66
74178;DHT22;62540;48.456;-4.456;2023-04-30T12:40:46;23.73;55.00
74178;DHT22;62540;48.456;-4.456;2023-04-30T12:43:14;23.73;55.58
74178;DHT22;62540;48.456;-4.456;2023-04-30T12:48:17;23.88;55.09
74178;DHT22;62540;48.456;-4.456;2023-04-30T12:50:58;23.67;54.92
74178;DHT22;62540;48.456;-4.456;2023-04-30T12:53:25;23.53;56.09
74178;DHT22;62540;48.456;-4.456;2023-04-30T12:56:11;23.50;56.17
74178;DHT22;62540;48.456;-4.456;2023-04-30T12:58:37;23.40;55.87
74178;DHT22;62540;48.456;-4.456;2023-04-30T13:01:03;23.36;55.66
74178;DHT22;62540;48.456;-4.456;2023-04-30T13:03:29;23.24;55.98
74178;DHT22;62540;48.456;-4.456;2023-04-30T13:05:54;23.15;56.13
74178;DHT22;62540;48.456;-4.456;2023-04-30T13:08:20;22.90;55.80
74178;DHT22;62540;48.456;-4.456;2023-04-30T13:10:46;22.67;56.58
74178;DHT22;62540;48.456;-4.456;2023-04-30T13:13:14;22.69;57.32
74178;DHT22;62540;48.456;-4.456;2023-04-30T13:15:42;22.75;57.00
74178;DHT22;62540;48.456;-4.456;2023-04-30T13:18:08;22.94;57.15
74178;DHT22;62540;48.456;-4.456;2023-04-30T13:20:35;22.99;56.70
74178;DHT22;62540;48.456;-4.456;2023-04-30T13:23:00;23.15;56.34
74178;DHT22;62540;48.456;-4.456;2023-04-30T13:25:26;23.24;56.06
74178;DHT22;62540;48.456;-4.456;2023-04-30T13:27:51;23.38;57.23
74178;DHT22;62540;48.456;-4.456;2023-04-30T13:30:17;23.66;56.44
74178;DHT22;62540;48.456;-4.456;2023-04-30T13:32:42;23.81;55.83
74178;DHT22;62540;48.456;-4.456;2023-04-30T13:35:09;24.01;55.56
74178;DHT22;62540;48.456;-4.456;2023-04-30T13:37:35;24.12;54.98
74178;DHT22;62540;48.456;-4.456;2023-04-30T13:40:01;24.26;54.57
74178;DHT22;62540;48.456;-4.456;2023-04-30T13:42:28;24.43;53.52
74178;DHT22;62540;48.456;-4.456;2023-04-30T13:44:54;24.46;53.19
74178;DHT22;62540;48.456;-4.456;2023-04-30T13:47:19;24.48;54.04
74178;DHT22;62540;48.456;-4.456;2023-04-30T13:49:45;24.53;54.01
74178;DHT22;62540;48.456;-4.456;2023-04-30T13:52:11;24.42;52.74
74178;DHT22;62540;48.456;-4.456;2023-04-30T13:54:36;24.31;52.92
74178;DHT22;62540;48.456;-4.456;2023-04-30T13:57:04;24.12;53.76
74178;DHT22;62540;48.456;-4.456;2023-04-30T13:59:30;23.94;54.15
74178;DHT22;62540;48.456;-4.456;2023-04-30T14:01:56;23.88;54.55
74178;DHT22;62540;48.456;-4.456;2023-04-30T14:04:21;23.88;55.03
74178;DHT22;62540;48.456;-4.456;2023-04-30T14:06:47;23.71;54.39
74178;DHT22;62540;48.456;-4.456;2023-04-30T14:09:13;23.52;55.03
74178;DHT22;62540;48.456;-4.456;2023-04-30T14:11:38;23.43;55.55
74178;DHT22;62540;48.456;-4.456;2023-04-30T14:14:04;23.45;55.72
74178;DHT22;62540;48.456;-4.456;2023-04-30T14:16:30;23.49;55.79
74178;DHT22;62540;48.456;-4.456;2023-04-30T14:18:56;23.42;55.72
74178;DHT22;62540;48.456;-4.456;2023-04-30T14:21:21;23.45;55.74
74178;DHT22;62540;48.456;-4.456;2023-04-30T14:23:46;23.49;55.85
74178;DHT22;62540;48.456;-4.456;2023-04-30T14:26:12;23.60;55.90
74178;DHT22;62540;48.456;-4.456;2023-04-30T14:28:37;23.70;55.62
74178;DHT22;62540;48.456;-4.456;2023-04-30T14:31:03;23.80;55.69
74178;DHT22;62540;48.456;-4.456;2023-04-30T14:33:30;23.94;54.65
74178;DHT22;62540;48.456;-4.456;2023-04-30T14:35:56;24.01;54.95
74178;DHT22;62540;48.456;-4.456;2023-04-30T14:38:24;24.14;54.84
74178;DHT22;62540;48.456;-4.456;2023-04-30T14:40:49;24.22;54.37
74178;DHT22;62540;48.456;-4.456;2023-04-30T14:43:15;24.31;54.21
74178;DHT22;62540;48.456;-4.456;2023-04-30T14:45:40;24.38;54.11
74178;DHT22;62540;48.456;-4.456;2023-04-30T14:48:05;24.39;54.15
74178;DHT22;62540;48.456;-4.456;2023-04-30T14:50:31;24.33;54.27
74178;DHT22;62540;48.456;-4.456;2023-04-30T14:52:56;24.25;53.96
74178;DHT22;62540;48.456;-4.456;2023-04-30T14:55:22;24.10;53.49
74178;DHT22;62540;48.456;-4.456;2023-04-30T14:57:47;24.05;54.38
74178;DHT22;62540;48.456;-4.456;2023-04-30T15:00:15;24.12;54.51
74178;DHT22;62540;48.456;-4.456;2023-04-30T15:02:40;24.17;53.73
74178;DHT22;62540;48.456;-4.456;2023-04-30T15:05:06;24.18;54.13
74178;DHT22;62540;48.456;-4.456;2023-04-30T15:07:33;24.15;53.32
74178;DHT22;62540;48.456;-4.456;2023-04-30T15:09:58;24.00;53.14
74178;DHT22;62540;48.456;-4.456;2023-04-30T15:12:23;23.91;52.75
74178;DHT22;62540;48.456;-4.456;2023-04-30T15:14:49;23.85;53.40
74178;DHT22;62540;48.456;-4.456;2023-04-30T15:17:14;23.82;54.42
74178;DHT22;62540;48.456;-4.456;2023-04-30T15:19:40;23.85;53.07
74178;DHT22;62540;48.456;-4.456;2023-04-30T15:22:05;23.90;53.50
74178;DHT22;62540;48.456;-4.456;2023-04-30T15:24:31;23.84;52.53
74178;DHT22;62540;48.456;-4.456;2023-04-30T15:26:56;23.64;52.72
74178;DHT22;62540;48.456;-4.456;2023-04-30T15:29:23;23.54;53.52
74178;DHT22;62540;48.456;-4.456;2023-04-30T15:31:48;23.45;53.90
74178;DHT22;62540;48.456;-4.456;2023-04-30T15:34:19;23.39;54.04
74178;DHT22;62540;48.456;-4.456;2023-04-30T15:36:44;23.36;54.66
74178;DHT22;62540;48.456;-4.456;2023-04-30T15:39:10;23.29;54.86
74178;DHT22;62540;48.456;-4.456;2023-04-30T15:41:35;23.09;54.81